Time;durP1;ratioP1;P1;durP2;ratioP2;P2;SDS_P1;SDS_P2;PMS_P1;PMS_P2;Temp;Humidity;BMP_temperature;BMP_pressure;BME280_temperature;BME280_humidity;BME280_pressure;Samples;Min_cycle;Max_cycle;Signal;HPM_P1;HPM_P2
2022/03/28 00:00:09;;;;;;;17.70;6.68;;;;;;;6.02;82.88;102621.13;5050347;28;20028;-75
2022/03/28 00:02:37;;;;;;;22.83;7.38;;;;;;;6.02;83.44;102621.97;5053444;28;20035;-75
2022/03/28 00:05:03;;;;;;;12.65;6.03;;;;;;;6.06;83.57;102620.75;5052912;28;20025;-75
2022/03/28 00:07:28;;;;;;;18.35;6.00;;;;;;;6.02;84.19;102610.53;5053485;28;20831;-75
2022/03/28 00:09:53;;;;;;;15.20;6.32;;;;;;;6.04;83.74;102612.09;5052168;28;20118;-75
2022/03/28 00:12:19;;;;;;;19.27;7.18;;;;;;;6.03;84.61;102617.53;5053394;28;20491;-75
2022/03/28 00:14:44;;;;;;;19.17;6.47;;;;;;;6.00;84.92;102604.50;5053313;28;20043;-75
2022/03/28 00:17:09;;;;;;;21.05;7.45;;;;;;;5.93;84.82;102601.50;5053387;28;20090;-75
2022/03/28 00:19:35;;;;;;;20.10;8.32;;;;;;;5.93;84.69;102599.72;5068607;28;20459;-75
2022/03/28 00:22:00;;;;;;;22.75;6.43;;;;;;;5.90;84.69;102599.09;5053207;28;20381;-75
2022/03/28 00:24:26;;;;;;;16.20;6.95;;;;;;;5.86;84.62;102593.19;5053172;28;20056;-75
2022/03/28 00:26:51;;;;;;;21.77;7.97;;;;;;;5.83;84.92;102587.31;5052906;28;20041;-75
2022/03/28 00:29:16;;;;;;;22.25;8.18;;;;;;;5.87;84.81;102588.75;5051702;28;20052;-75
2022/03/28 00:31:42;;;;;;;20.73;6.65;;;;;;;5.86;84.86;102585.25;5052688;28;20039;-75
2022/03/28 00:34:08;;;;;;;22.30;6.57;;;;;;;5.83;85.08;102574.91;5052788;28;20048;-75
2022/03/28 00:36:33;;;;;;;15.57;5.25;;;;;;;5.84;84.37;102576.59;5052744;28;20094;-75
2022/03/28 00:38:59;;;;;;;16.20;6.97;;;;;;;5.82;84.40;102573.22;5052769;28;20029;-75
2022/03/28 00:41:24;;;;;;;12.30;5.88;;;;;;;5.79;85.35;102570.84;5052859;28;20027;-75
2022/03/28 00:43:55;;;;;;;16.65;6.80;;;;;;;5.74;86.34;102570.34;5052934;28;20028;-75
2022/03/28 00:46:21;;;;;;;19.47;9.33;;;;;;;5.68;85.49;102553.13;5051436;28;20025;-75
2022/03/28 00:48:46;;;;;;;19.40;7.28;;;;;;;5.67;86.52;102555.91;5051221;28;20098;-75
2022/03/28 00:51:12;;;;;;;24.65;10.70;;;;;;;5.68;86.33;102555.78;5052538;28;20031;-75
2022/03/28 00:53:38;;;;;;;45.15;21.40;;;;;;;5.67;86.19;102545.34;5052604;28;20388;-75
2022/03/28 00:56:05;;;;;;;39.03;16.05;;;;;;;5.71;86.11;102549.41;5052585;28;20025;-75
2022/03/28 00:58:30;;;;;;;23.73;11.43;;;;;;;5.71;85.64;102544.97;5052420;28;20507;-75
2022/03/28 01:00:55;;;;;;;31.10;13.07;;;;;;;5.63;84.98;102547.38;5051213;28;20119;-75
2022/03/28 01:03:21;;;;;;;28.15;13.10;;;;;;;5.54;84.93;102537.53;5052338;28;20086;-75
2022/03/28 01:05:46;;;;;;;27.52;10.18;;;;;;;5.55;85.08;102543.66;5051154;28;20120;-75
2022/03/28 01:08:14;;;;;;;18.48;7.72;;;;;;;5.48;84.98;102538.03;5051964;28;20044;-75
2022/03/28 01:10:42;;;;;;;18.77;7.80;;;;;;;5.38;85.02;102545.00;5051757;28;20037;-75
2022/03/28 01:13:09;;;;;;;18.92;7.22;;;;;;;5.39;85.63;102544.84;5051382;28;20025;-75
2022/03/28 01:15:34;;;;;;;15.88;7.18;;;;;;;5.32;85.39;102532.22;5050692;28;20032;-75
2022/03/28 01:18:05;;;;;;;20.48;7.70;;;;;;;5.36;85.79;102537.16;5050526;28;20098;-75
2022/03/28 01:20:32;;;;;;;20.70;7.82;;;;;;;5.38;85.83;102537.91;5051755;28;20048;-75
2022/03/28 01:22:58;;;;;;;17.25;7.22;;;;;;;5.39;85.38;102528.16;5051981;28;20875;-75
2022/03/28 01:25:25;;;;;;;21.00;8.95;;;;;;;5.39;85.44;102523.69;5050275;28;20132;-75
2022/03/28 01:27:52;;;;;;;14.93;5.90;;;;;;;5.38;86.04;102521.19;5050337;28;20087;-75
2022/03/28 01:30:22;;;;;;;17.83;7.68;;;;;;;5.37;86.12;102525.63;5051786;28;20033;-75
2022/03/28 01:32:54;;;;;;;17.45;6.63;;;;;;;5.38;86.12;102521.19;5051430;28;20136;-75
2022/03/28 01:35:31;;;;;;;21.83;8.43;;;;;;;5.40;86.91;102521.91;5050108;28;20044;-75
2022/03/28 01:37:58;;;;;;;19.25;7.15;;;;;;;5.40;87.13;102511.31;5051720;28;20024;-75
2022/03/28 01:40:24;;;;;;;20.55;7.15;;;;;;;5.48;87.29;102514.19;5051702;28;20120;-75
2022/03/28 01:42:49;;;;;;;20.33;7.07;;;;;;;5.47;87.52;102501.91;5051521;28;20115;-75
2022/03/28 01:45:16;;;;;;;19.20;8.32;;;;;;;5.51;87.94;102503.38;5051679;28;20028;-75
2022/03/28 01:47:42;;;;;;;22.40;7.63;;;;;;;5.48;87.72;102496.50;5051548;28;20091;-75
2022/03/28 01:50:07;;;;;;;17.85;7.28;;;;;;;5.46;88.13;102495.78;5051629;28;20032;-75
2022/03/28 01:52:33;;;;;;;28.38;10.13;;;;;;;5.44;88.22;102487.13;5051187;28;20051;-75
2022/03/28 01:54:58;;;;;;;19.58;7.15;;;;;;;5.42;87.74;102499.66;5049731;28;20119;-75
2022/03/28 01:57:24;;;;;;;16.60;6.60;;;;;;;5.40;87.32;102492.81;5051092;28;20033;-75
2022/03/28 01:59:49;;;;;;;20.60;8.43;;;;;;;5.40;87.70;102500.75;5050430;28;20381;-75
2022/03/28 02:02:14;;;;;;;24.27;9.02;;;;;;;5.37;86.92;102493.91;5051216;28;20033;-75
2022/03/28 02:04:40;;;;;;;20.35;8.80;;;;;;;5.35;87.39;102494.97;5051319;28;20039;-75
2022/03/28 02:07:05;;;;;;;20.45;6.53;;;;;;;5.31;86.89;102490.88;5051118;28;20021;-75
2022/03/28 02:09:30;;;;;;;19.92;7.53;;;;;;;5.32;87.17;102488.13;5050946;28;20495;-75
2022/03/28 02:11:56;;;;;;;19.05;7.45;;;;;;;5.26;87.30;102480.66;5050762;28;20037;-75
2022/03/28 02:14:21;;;;;;;20.25;7.85;;;;;;;5.23;86.99;102488.84;5066481;28;20112;-75
2022/03/28 02:16:47;;;;;;;19.23;7.30;;;;;;;5.19;87.69;102484.78;5051140;28;20488;-74
2022/03/28 02:19:12;;;;;;;20.05;6.05;;;;;;;5.17;87.00;102486.69;5051098;28;20033;-74
2022/03/28 02:21:38;;;;;;;17.77;6.32;;;;;;;5.10;87.35;102494.25;5051084;28;20079;-74
2022/03/28 02:24:03;;;;;;;20.02;6.32;;;;;;;5.08;87.11;102495.31;5050123;28;20048;-74
2022/03/28 02:26:29;;;;;;;23.17;7.03;;;;;;;5.03;87.33;102485.97;5050668;28;20043;-74
2022/03/28 02:28:54;;;;;;;17.08;9.13;;;;;;;5.00;88.62;102477.41;5050544;28;20032;-74
2022/03/28 02:31:19;;;;;;;18.77;6.70;;;;;;;5.10;88.73;102480.19;5049719;28;20029;-74
2022/03/28 02:33:45;;;;;;;21.85;6.60;;;;;;;5.09;88.73;102468.78;5050488;28;20114;-74
2022/03/28 02:36:11;;;;;;;22.73;6.88;;;;;;;5.15;88.66;102470.09;5049476;28;20060;-74
2022/03/28 02:38:36;;;;;;;18.48;7.57;;;;;;;5.08;88.24;102466.25;5050641;28;20488;-74
2022/03/28 02:41:02;;;;;;;22.05;7.95;;;;;;;5.03;87.82;102461.31;5032515;28;20082;-74
2022/03/28 02:43:27;;;;;;;15.40;5.40;;;;;;;4.97;87.64;102472.38;5049294;28;20028;-74
2022/03/28 02:45:53;;;;;;;16.95;6.30;;;;;;;4.89;87.74;102456.28;5050222;28;20066;-74
2022/03/28 02:48:18;;;;;;;16.80;5.90;;;;;;;4.87;88.17;102458.19;5050244;28;20388;-74
2022/03/28 02:50:45;;;;;;;17.38;7.85;;;;;;;4.76;88.28;102451.94;5050334;28;20039;-74
2022/03/28 02:53:11;;;;;;;21.13;8.18;;;;;;;4.78;88.80;102465.88;5050389;28;20541;-74
2022/03/28 02:55:36;;;;;;;17.02;5.95;;;;;;;4.72;88.30;102450.50;5050503;28;20034;-75
2022/03/28 02:58:01;;;;;;;22.70;7.43;;;;;;;4.66;88.28;102447.47;5050261;28;20127;-75
2022/03/28 03:00:27;;;;;;;18.10;7.75;;;;;;;4.59;89.60;102444.47;5050428;28;20037;-75
2022/03/28 03:02:52;;;;;;;19.73;7.10;;;;;;;4.56;89.62;102442.09;5050272;28;20037;-75
2022/03/28 03:05:17;;;;;;;19.42;7.43;;;;;;;4.51;89.87;102441.59;5050349;28;20025;-75
2022/03/28 03:07:43;;;;;;;20.67;8.88;;;;;;;4.50;90.04;102438.09;5049033;28;20472;-75
2022/03/28 03:10:09;;;;;;;18.58;8.95;;;;;;;4.42;90.47;102431.72;5050549;28;20366;-75
2022/03/28 03:12:35;;;;;;;22.42;8.38;;;;;;;4.36;91.02;102422.47;5050273;28;20029;-75
2022/03/28 03:15:00;;;;;;;22.38;9.27;;;;;;;4.42;91.25;102432.53;5050183;28;20483;-75
2022/03/28 03:17:25;;;;;;;24.55;8.65;;;;;;;4.39;91.73;102428.34;5049080;28;20033;-75
2022/03/28 03:19:51;;;;;;;18.42;8.18;;;;;;;4.42;91.91;102418.50;5048934;28;20041;-75
2022/03/28 03:22:17;;;;;;;17.27;7.25;;;;;;;4.44;91.75;102425.34;5049828;28;20060;-74
2022/03/28 03:24:44;;;;;;;17.80;6.65;;;;;;;4.42;91.76;102421.16;5049015;28;20429;-74
2022/03/28 03:27:10;;;;;;;19.15;7.25;;;;;;;4.39;91.60;102423.06;5048560;28;20206;-75
2022/03/28 03:29:36;;;;;;;18.33;7.32;;;;;;;4.36;90.90;102428.56;5048694;28;20044;-75
2022/03/28 03:32:03;;;;;;;17.90;8.10;;;;;;;4.35;90.58;102420.78;5049794;28;20025;-75
2022/03/28 03:34:29;;;;;;;18.05;7.72;;;;;;;4.29;90.10;102423.88;5048224;28;20053;-75
2022/03/28 03:36:54;;;;;;;17.00;6.68;;;;;;;4.25;89.95;102409.25;5053734;28;20130;-75
2022/03/28 03:39:22;;;;;;;18.95;6.53;;;;;;;4.23;89.85;102422.53;5053799;28;20062;-75
2022/03/28 03:41:48;;;;;;;16.75;6.30;;;;;;;4.15;90.34;102411.72;5053249;28;20025;-75
2022/03/28 03:44:13;;;;;;;19.75;7.13;;;;;;;4.20;90.13;102425.44;5053414;28;20102;-75
2022/03/28 03:46:38;;;;;;;19.20;7.78;;;;;;;4.18;90.38;102428.16;5052275;28;20040;-74
2022/03/28 03:49:04;;;;;;;19.30;6.25;;;;;;;4.13;90.17;102411.00;5053508;28;20040;-74
2022/03/28 03:51:29;;;;;;;20.00;7.25;;;;;;;4.06;90.34;102404.47;5052934;28;20025;-74
2022/03/28 03:53:55;;;;;;;20.20;7.88;;;;;;;4.08;91.18;102399.94;5053334;28;20083;-74
2022/03/28 03:56:20;;;;;;;20.83;7.78;;;;;;;4.04;91.18;102399.34;5053259;28;20024;-74
2022/03/28 03:58:46;;;;;;;22.10;7.70;;;;;;;4.07;90.74;102407.03;5053549;28;20086;-74
2022/03/28 04:01:11;;;;;;;19.40;7.70;;;;;;;4.06;90.80;102401.84;5053003;28;20029;-74
2022/03/28 04:03:37;;;;;;;23.98;8.07;;;;;;;4.03;90.42;102402.91;5053072;28;20029;-74
2022/03/28 04:06:03;;;;;;;19.80;7.63;;;;;;;4.00;90.67;102402.31;5052835;28;20036;-74
2022/03/28 04:08:28;;;;;;;18.45;7.40;;;;;;;3.96;90.81;102399.06;5053070;28;20060;-74
2022/03/28 04:10:55;;;;;;;17.98;8.50;;;;;;;3.81;90.59;102385.22;5052877;28;20072;-74
2022/03/28 04:13:21;;;;;;;24.83;9.05;;;;;;;3.84;91.14;102389.44;5034958;28;20543;-74
2022/03/28 04:15:46;;;;;;;18.30;6.47;;;;;;;3.84;91.94;102382.34;5052810;28;20056;-74
2022/03/28 04:18:12;;;;;;;22.95;7.63;;;;;;;3.83;92.25;102385.13;5052810;28;20059;-74
2022/03/28 04:20:37;;;;;;;20.15;8.30;;;;;;;3.80;92.49;102382.69;5052513;28;20155;-74
2022/03/28 04:23:03;;;;;;;16.52;6.50;;;;;;;3.79;92.46;102379.22;5052677;28;20087;-75
2022/03/28 04:25:29;;;;;;;24.38;8.27;;;;;;;3.83;92.30;102393.88;5052421;28;20043;-75
2022/03/28 04:27:54;;;;;;;21.85;7.47;;;;;;;3.78;91.62;102381.97;5052423;28;20060;-74
2022/03/28 04:30:20;;;;;;;23.52;8.43;;;;;;;3.74;91.77;102376.91;5051007;28;20102;-74
2022/03/28 04:32:45;;;;;;;18.85;8.38;;;;;;;3.76;92.78;102373.31;5052598;28;20108;-74
2022/03/28 04:35:12;;;;;;;22.67;8.68;;;;;;;3.75;93.40;102380.41;5052548;28;20049;-74
2022/03/28 04:37:39;;;;;;;22.02;9.63;;;;;;;3.73;93.45;102380.50;5039318;28;20048;-74
2022/03/28 04:40:07;;;;;;;19.00;6.72;;;;;;;3.72;93.96;102381.47;5052486;28;20032;-75
2022/03/28 04:42:34;;;;;;;19.45;7.60;;;;;;;3.73;94.35;102383.16;5052419;28;20047;-75
2022/03/28 04:44:59;;;;;;;17.33;6.82;;;;;;;3.65;94.00;102367.06;5052231;28;20017;-75
2022/03/28 04:47:24;;;;;;;17.27;6.32;;;;;;;3.69;92.77;102380.84;5051223;28;20379;-75
2022/03/28 04:49:50;;;;;;;17.92;7.10;;;;;;;3.64;92.90;102375.06;5052447;28;20041;-75
2022/03/28 04:52:15;;;;;;;20.83;7.22;;;;;;;3.62;92.89;102390.19;5052192;28;20032;-75
2022/03/28 04:54:40;;;;;;;23.05;7.93;;;;;;;3.60;92.58;102382.38;5052093;28;20033;-75
2022/03/28 04:57:06;;;;;;;15.93;7.78;;;;;;;3.58;92.48;102380.81;5052051;28;20033;-75
2022/03/28 04:59:32;;;;;;;18.73;6.47;;;;;;;3.52;92.26;102387.38;5052216;28;20403;-75
2022/03/28 05:01:58;;;;;;;21.85;8.52;;;;;;;3.49;92.06;102380.53;5052146;28;20037;-74
2022/03/28 05:04:24;;;;;;;19.60;6.75;;;;;;;3.49;92.19;102383.16;5052076;28;20134;-74
2022/03/28 05:06:49;;;;;;;20.98;6.63;;;;;;;3.52;92.65;102400.56;5050729;28;20029;-74
2022/03/28 05:09:15;;;;;;;17.00;6.95;;;;;;;3.53;92.80;102401.41;5051651;28;20035;-74
2022/03/28 05:11:41;;;;;;;16.75;7.13;;;;;;;3.48;92.60;102388.53;5051690;28;20040;-74
2022/03/28 05:14:07;;;;;;;27.30;9.70;;;;;;;3.44;92.61;102385.31;5050544;28;20029;-74
2022/03/28 05:16:33;;;;;;;29.67;8.43;;;;;;;3.43;93.01;102380.13;5051641;28;20055;-74
2022/03/28 05:18:58;;;;;;;12.45;6.45;;;;;;;3.37;92.33;102378.78;5051726;28;20032;-74
2022/03/28 05:21:24;;;;;;;20.17;6.38;;;;;;;3.28;92.04;102377.66;5050082;28;20449;-74
2022/03/28 05:23:49;;;;;;;18.30;6.97;;;;;;;3.22;92.93;102356.16;5051425;28;20035;-74
2022/03/28 05:26:14;;;;;;;23.23;9.50;;;;;;;3.23;93.88;102363.97;5049970;28;20097;-74
2022/03/28 05:28:40;;;;;;;18.55;8.45;;;;;;;3.28;94.16;102372.41;5051587;28;20036;-74
2022/03/28 05:31:05;;;;;;;20.77;8.27;;;;;;;3.32;94.56;102373.00;5051287;28;20583;-74
2022/03/28 05:33:31;;;;;;;17.02;6.97;;;;;;;3.34;93.88;102368.47;5051201;28;20381;-74
2022/03/28 05:35:56;;;;;;;20.55;7.43;;;;;;;3.34;93.75;102370.25;5049998;28;20044;-74
2022/03/28 05:38:22;;;;;;;20.70;7.35;;;;;;;3.34;93.24;102375.53;5051053;28;20533;-74
2022/03/28 05:40:48;;;;;;;18.40;7.13;;;;;;;3.32;93.10;102374.81;5051222;28;20029;-74
2022/03/28 05:43:14;;;;;;;19.80;7.32;;;;;;;3.31;92.67;102371.31;5051192;28;20093;-74
2022/03/28 05:45:39;;;;;;;18.88;5.80;;;;;;;3.35;92.44;102371.94;5051006;28;20037;-74
2022/03/28 05:48:05;;;;;;;16.67;7.15;;;;;;;3.40;92.60;102375.09;5050007;28;20090;-74
2022/03/28 05:50:30;;;;;;;20.13;6.97;;;;;;;3.46;92.62;102364.94;5049865;28;20108;-74
2022/03/28 05:52:56;;;;;;;19.40;6.57;;;;;;;3.51;92.87;102373.34;5050953;28;20484;-74
2022/03/28 05:55:22;;;;;;;21.85;8.68;;;;;;;3.57;93.29;102372.06;5050961;28;20036;-74
2022/03/28 05:57:47;;;;;;;17.90;7.03;;;;;;;3.63;93.47;102376.03;5050601;28;20025;-74
2022/03/28 06:00:14;;;;;;;18.27;8.43;;;;;;;3.62;92.96;102359.38;5050800;28;20043;-75
2022/03/28 06:02:41;;;;;;;17.20;7.18;;;;;;;3.73;93.16;102383.16;5050957;28;20582;-75
2022/03/28 06:05:07;;;;;;;23.27;6.75;;;;;;;3.77;92.73;102369.72;5050554;28;20052;-75
2022/03/28 06:07:32;;;;;;;20.60;7.63;;;;;;;3.80;92.82;102367.72;5049203;28;20072;-75
2022/03/28 06:09:58;;;;;;;17.45;8.20;;;;;;;3.87;93.33;102363.63;5050594;28;20029;-75
2022/03/28 06:12:23;;;;;;;19.67;7.45;;;;;;;4.01;92.92;102354.69;5050597;28;20029;-74
2022/03/28 06:14:49;;;;;;;20.52;7.90;;;;;;;4.19;93.27;102360.34;5050623;28;20503;-74
2022/03/28 06:17:25;;;;;;;29.60;8.95;;;;;;;4.31;93.20;102355.94;5050362;28;20070;-74
2022/03/28 06:19:51;;;;;;;18.17;7.18;;;;;;;4.35;93.01;102355.59;5050394;28;20025;-74
2022/03/28 06:22:17;;;;;;;20.35;8.90;;;;;;;4.44;93.19;102351.38;5050902;28;20025;-74
2022/03/28 06:24:43;;;;;;;35.90;10.45;;;;;;;4.59;93.47;102354.63;5049411;28;20842;-74
2022/03/28 06:27:08;;;;;;;19.08;6.05;;;;;;;4.76;93.22;102356.78;5050283;28;20108;-74
2022/03/28 06:29:33;;;;;;;26.75;8.38;;;;;;;4.90;92.32;102347.78;5050353;28;20035;-74
2022/03/28 06:31:59;;;;;;;16.98;6.88;;;;;;;5.03;92.14;102347.59;5048945;28;20048;-74
2022/03/28 06:34:24;;;;;;;22.52;7.72;;;;;;;5.08;92.00;102345.44;5031995;28;20061;-74
2022/03/28 06:36:50;;;;;;;24.48;10.43;;;;;;;5.20;91.88;102352.38;5050876;28;20109;-74
2022/03/28 06:39:16;;;;;;;21.10;7.28;;;;;;;5.29;91.76;102348.13;5049556;28;20068;-75
2022/03/28 06:41:41;;;;;;;18.60;7.53;;;;;;;5.41;91.30;102354.25;5050636;28;20082;-75
2022/03/28 06:44:13;;;;;;;24.05;7.80;;;;;;;5.49;91.68;102343.88;5050286;28;20028;-74
2022/03/28 06:46:40;;;;;;;20.23;7.75;;;;;;;5.62;92.31;102354.28;5049524;28;20163;-74
2022/03/28 06:49:06;;;;;;;40.08;11.48;;;;;;;5.67;92.16;102345.00;5041533;28;20056;-75
2022/03/28 06:51:33;;;;;;;29.42;11.43;;;;;;;5.74;92.09;102352.41;5050912;28;20481;-75
2022/03/28 06:53:59;;;;;;;22.00;7.15;;;;;;;5.78;91.88;102345.91;5050380;28;20036;-75
2022/03/28 06:56:24;;;;;;;20.73;8.70;;;;;;;5.84;91.96;102350.69;5050916;28;20025;-76
2022/03/28 06:58:50;;;;;;;23.02;9.48;;;;;;;5.89;92.36;102343.19;5050521;28;20554;-75
2022/03/28 07:01:15;;;;;;;25.42;8.32;;;;;;;6.05;91.83;102340.13;5050172;28;20028;-75
2022/03/28 07:03:41;;;;;;;28.48;11.32;;;;;;;6.18;91.30;102346.06;5050571;28;20472;-75
2022/03/28 07:06:07;;;;;;;25.45;9.00;;;;;;;6.24;91.05;102344.72;5050349;28;20484;-76
2022/03/28 07:08:33;;;;;;;26.52;9.80;;;;;;;6.29;90.88;102342.50;5050540;28;20060;-75
2022/03/28 07:10:59;;;;;;;25.35;9.25;;;;;;;6.35;90.50;102340.16;5051210;28;20469;-75
2022/03/28 07:13:24;;;;;;;22.75;9.25;;;;;;;6.39;90.45;102343.38;5052831;28;20037;-75
2022/03/28 07:15:49;;;;;;;26.92;9.50;;;;;;;6.41;90.27;102340.59;5054185;28;20064;-75
2022/03/28 07:18:15;;;;;;;30.05;12.00;;;;;;;6.41;89.91;102340.59;5052631;28;20033;-75
2022/03/28 07:20:43;;;;;;;26.70;11.65;;;;;;;6.43;90.32;102341.31;5054534;28;20079;-75
2022/03/28 07:23:09;;;;;;;31.13;10.38;;;;;;;6.45;90.35;102329.59;5053123;28;20135;-75
2022/03/28 07:25:36;;;;;;;26.83;11.35;;;;;;;6.58;90.25;102329.38;5054358;28;20029;-75
2022/03/28 07:28:12;;;;;;;22.45;10.93;;;;;;;6.66;89.77;102331.38;5054189;28;20040;-74
2022/03/28 07:30:39;;;;;;;23.60;11.43;;;;;;;6.75;89.85;102328.72;5054501;28;20473;-74
2022/03/28 07:33:06;;;;;;;24.98;11.82;;;;;;;6.83;89.66;102324.56;5055021;28;20029;-76
2022/03/28 07:35:35;;;;;;;25.80;11.05;;;;;;;6.99;90.21;102327.53;5053889;28;20508;-75
2022/03/28 07:38:02;;;;;;;26.80;10.48;;;;;;;7.11;89.30;102317.66;5054834;28;20657;-75
2022/03/28 07:40:27;;;;;;;22.52;10.68;;;;;;;7.19;88.53;102326.59;5052673;28;20035;-72
2022/03/28 07:42:53;;;;;;;29.38;12.02;;;;;;;7.24;88.20;102316.41;5052784;28;20028;-75
2022/03/28 07:45:19;;;;;;;25.08;11.77;;;;;;;7.64;88.76;102318.06;5054680;28;20407;-74
2022/03/28 07:47:45;;;;;;;27.92;11.50;;;;;;;8.31;85.78;102310.09;5054510;28;20032;-75
2022/03/28 07:50:11;;;;;;;27.63;11.05;;;;;;;8.53;84.36;102307.09;5053148;28;20033;-75
2022/03/28 07:52:37;;;;;;;26.25;11.13;;;;;;;8.54;83.33;102307.91;5054082;28;20021;-75
2022/03/28 07:55:04;;;;;;;39.30;13.63;;;;;;;8.53;84.15;102301.78;5054195;28;20434;-75
2022/03/28 07:57:29;;;;;;;27.67;11.70;;;;;;;8.68;83.78;102307.44;5054217;28;20033;-75
2022/03/28 07:59:55;;;;;;;28.00;10.70;;;;;;;8.59;82.98;102295.03;5054594;28;20106;-75
2022/03/28 08:02:23;;;;;;;27.88;10.32;;;;;;;8.62;83.81;102305.38;5054033;28;20025;-74
2022/03/28 08:04:48;;;;;;;25.08;10.73;;;;;;;8.54;83.64;102299.94;5053852;28;20028;-74
2022/03/28 08:07:14;;;;;;;28.23;10.85;;;;;;;8.61;83.55;102301.03;5054140;28;20484;-74
2022/03/28 08:09:40;;;;;;;30.40;13.10;;;;;;;8.66;83.43;102290.78;5053937;28;20507;-74
2022/03/28 08:12:06;;;;;;;27.85;14.20;;;;;;;8.68;82.75;102291.47;5053885;28;20037;-74
2022/03/28 08:14:32;;;;;;;26.95;12.88;;;;;;;8.70;82.82;102283.38;5053409;28;20032;-74
2022/03/28 08:16:58;;;;;;;34.05;12.95;;;;;;;8.76;82.99;102280.94;5052474;28;20025;-74
2022/03/28 08:19:24;;;;;;;27.05;11.02;;;;;;;8.90;82.46;102281.41;5053955;28;20068;-74
2022/03/28 08:21:50;;;;;;;30.20;12.07;;;;;;;9.06;81.96;102278.06;5053585;28;20060;-74
2022/03/28 08:24:15;;;;;;;31.80;11.20;;;;;;;9.14;81.97;102279.00;5053398;28;20029;-74
2022/03/28 08:26:41;;;;;;;28.23;13.23;;;;;;;9.23;81.70;102287.91;5053347;28;20548;-74
2022/03/28 08:29:06;;;;;;;27.77;13.25;;;;;;;9.44;80.57;102290.25;5053558;28;20029;-74
2022/03/28 08:31:32;;;;;;;44.33;13.10;;;;;;;9.67;80.18;102279.94;5053205;28;20094;-74
2022/03/28 08:33:58;;;;;;;27.35;13.88;;;;;;;9.79;80.29;102275.19;5053209;28;20109;-74
2022/03/28 08:36:23;;;;;;;26.60;12.15;;;;;;;10.02;79.22;102284.31;5053053;28;20028;-74
2022/03/28 08:38:49;;;;;;;35.33;13.35;;;;;;;10.01;79.22;102268.50;5053211;28;20526;-74
2022/03/28 08:41:17;;;;;;;30.55;12.40;;;;;;;10.03;78.31;102271.84;5052715;28;20056;-74
2022/03/28 08:43:42;;;;;;;31.02;12.77;;;;;;;10.02;78.07;102265.66;5052552;28;20036;-74
2022/03/28 08:46:09;;;;;;;27.20;13.68;;;;;;;10.07;77.61;102255.38;5052992;28;20017;-74
2022/03/28 08:48:40;;;;;;;29.90;13.95;;;;;;;10.10;77.83;102254.22;5052600;28;20044;-74
2022/03/28 08:51:08;;;;;;;35.28;14.07;;;;;;;10.20;77.95;102262.94;5052989;28;20557;-74
2022/03/28 08:53:36;;;;;;;37.88;16.58;;;;;;;10.31;76.93;102265.34;5052775;28;20029;-74
2022/03/28 08:56:02;;;;;;;31.48;14.68;;;;;;;10.30;77.06;102262.84;5052419;28;20036;-74
2022/03/28 08:58:28;;;;;;;34.05;15.02;;;;;;;10.42;76.45;102264.22;5051385;28;20388;-74
2022/03/28 09:00:54;;;;;;;30.83;13.40;;;;;;;10.53;77.17;102258.63;5052745;28;20021;-74
2022/03/28 09:03:19;;;;;;;33.17;15.85;;;;;;;10.65;77.62;102261.81;5052502;28;20029;-74
2022/03/28 09:05:49;;;;;;;35.63;14.70;;;;;;;10.82;75.88;102257.38;5052383;28;20043;-74
2022/03/28 09:08:15;;;;;;;30.95;13.25;;;;;;;10.96;75.64;102261.22;5052413;28;20108;-74
2022/03/28 09:10:47;;;;;;;31.88;15.55;;;;;;;11.05;75.68;102260.22;5052085;28;20140;-75
2022/03/28 09:13:13;;;;;;;;;;;;;;;11.13;76.53;102256.72;5052677;28;20093;-75
2022/03/28 09:15:49;;;;;;;35.50;16.73;;;;;;;11.25;75.32;102246.56;5052212;28;20293;-75
2022/03/28 09:18:29;;;;;;;35.10;15.43;;;;;;;11.32;74.13;102237.72;5052486;28;20032;-75
2022/03/28 09:20:59;;;;;;;29.10;14.38;;;;;;;11.41;74.18;102242.03;5052264;28;20492;-75
2022/03/28 09:23:31;;;;;;;36.60;15.13;;;;;;;11.53;73.26;102247.06;5052372;28;20967;-75
2022/03/28 09:25:57;;;;;;;26.40;13.65;;;;;;;11.54;72.87;102243.38;5050542;28;20025;-75
2022/03/28 09:28:25;;;;;;;29.45;15.13;;;;;;;11.54;72.63;102236.19;5052031;28;20395;-75
2022/03/28 09:30:50;;;;;;;26.75;13.55;;;;;;;11.69;71.37;102230.16;5051915;28;20121;-75
2022/03/28 09:33:18;;;;;;;34.05;15.30;;;;;;;11.76;70.95;102236.47;5051546;28;20115;-75
2022/03/28 09:35:46;;;;;;;31.70;15.30;;;;;;;11.83;71.58;102237.47;5051645;28;20053;-75
2022/03/28 09:38:13;;;;;;;33.10;16.60;;;;;;;11.94;70.99;102230.97;5052047;28;20029;-75
2022/03/28 09:40:51;;;;;;;28.38;14.23;;;;;;;12.01;70.92;102234.63;5051932;28;20024;-75
2022/03/28 09:43:21;;;;;;;30.77;15.05;;;;;;;12.11;69.98;102232.59;5051385;28;20151;-75
2022/03/28 09:45:50;;;;;;;34.03;17.17;;;;;;;12.23;69.71;102228.50;5051676;28;20047;-75
2022/03/28 09:48:16;;;;;;;34.58;21.25;;;;;;;12.32;69.53;102225.81;5051537;28;20027;-75
2022/03/28 09:50:46;;;;;;;36.13;18.17;;;;;;;12.43;67.98;102223.56;5051533;28;20399;-75
2022/03/28 09:53:27;;;;;;;38.47;20.63;;;;;;;12.47;68.65;102218.69;5051353;28;20084;-75
2022/03/28 09:56:11;;;;;;;43.75;28.10;;;;;;;12.49;67.33;102206.81;5051391;28;20033;-75
2022/03/28 09:58:56;;;;;;;51.92;33.90;;;;;;;12.64;68.27;102214.94;5050887;28;20075;-75
2022/03/28 10:01:30;;;;;;;32.17;20.00;;;;;;;12.77;67.05;102219.69;5050952;28;20024;-75
2022/03/28 10:04:08;;;;;;;38.60;20.83;;;;;;;12.93;68.19;102213.41;5051141;28;20492;-75
2022/03/28 10:06:38;;;;;;;33.10;21.77;;;;;;;13.02;66.46;102209.66;5051005;28;20427;-75
2022/03/28 10:09:07;;;;;;;31.60;17.70;;;;;;;13.08;64.64;102203.56;5051137;28;20032;-75
2022/03/28 10:11:36;;;;;;;35.28;18.30;;;;;;;13.18;66.64;102202.47;5050780;28;20065;-75
2022/03/28 10:14:02;;;;;;;39.47;20.20;;;;;;;13.28;64.55;102200.41;5050832;28;20025;-75
2022/03/28 10:16:27;;;;;;;39.17;23.60;;;;;;;13.33;64.79;102198.03;5050910;28;20079;-75
2022/03/28 10:18:53;;;;;;;44.10;20.73;;;;;;;13.49;64.29;102197.03;5050792;28;20473;-75
2022/03/28 10:21:23;;;;;;;37.08;19.73;;;;;;;13.62;65.07;102189.19;5049493;28;20033;-75
2022/03/28 10:24:12;;;;;;;30.00;16.80;;;;;;;13.72;64.97;102187.06;5050557;28;20074;-75
2022/03/28 10:26:47;;;;;;;31.98;17.00;;;;;;;13.80;63.76;102192.34;5050440;28;20036;-75
2022/03/28 10:29:17;;;;;;;33.28;17.17;;;;;;;13.88;62.95;102193.28;5050610;28;20506;-75
2022/03/28 10:31:57;;;;;;;27.35;14.77;;;;;;;13.88;64.30;102175.31;5050282;28;20040;-75
2022/03/28 10:34:56;;;;;;;33.40;15.05;;;;;;;14.00;63.05;102173.00;5050069;28;20122;-75
2022/03/28 10:37:44;;;;;;;27.40;14.88;;;;;;;14.07;64.19;102162.34;5065203;28;20013;-75
2022/03/28 10:40:24;;;;;;;27.33;14.20;;;;;;;14.15;63.23;102167.63;5049971;28;20029;-75
2022/03/28 10:42:52;;;;;;;28.08;14.45;;;;;;;14.22;61.65;102160.47;5050588;28;20380;-75
2022/03/28 10:45:21;;;;;;;28.75;14.35;;;;;;;14.24;58.66;102161.13;5049891;28;20025;-75
2022/03/28 10:47:52;;;;;;;26.42;14.02;;;;;;;14.27;59.76;102149.19;5050514;28;20028;-75
2022/03/28 10:50:39;;;;;;;27.23;13.57;;;;;;;14.26;59.18;102156.41;5050320;28;20025;-75
2022/03/28 10:53:26;;;;;;;25.95;12.77;;;;;;;14.35;60.49;102155.25;5049811;28;20053;-75
2022/03/28 10:56:05;;;;;;;31.95;13.98;;;;;;;14.44;60.61;102156.81;5050277;28;20031;-75
2022/03/28 10:58:36;;;;;;;29.35;14.40;;;;;;;14.51;59.34;102150.69;5050471;28;20254;-75
2022/03/28 11:01:08;;;;;;;27.50;14.13;;;;;;;14.55;59.21;102147.47;5049063;28;20048;-75
2022/03/28 11:03:47;;;;;;;26.88;13.73;;;;;;;14.59;60.77;102140.69;5049726;28;20362;-75
2022/03/28 11:06:18;;;;;;;27.52;14.80;;;;;;;14.67;59.54;102137.88;5049851;28;20108;-75
2022/03/28 11:08:57;;;;;;;28.25;14.15;;;;;;;14.72;56.90;102142.66;5049521;28;20028;-75
2022/03/28 11:11:30;;;;;;;25.10;12.43;;;;;;;14.74;55.68;102129.03;5049487;28;20021;-75
2022/03/28 11:14:12;;;;;;;26.60;14.00;;;;;;;14.79;56.79;102127.44;5049422;28;20037;-75
2022/03/28 11:16:52;;;;;;;31.00;14.40;;;;;;;14.89;57.95;102119.06;5049534;28;20025;-75
2022/03/28 11:19:25;;;;;;;27.42;14.13;;;;;;;14.92;54.56;102120.53;5049578;28;20025;-75